KRID

Richmond Municipal Airport

Richmond, Indiana, USA
METAR KRID 110315Z AUTO 22006KT 1 3/4SM BR OVC002 M07/M07 A3022 RMK AO2
Observed Flight Rules
Dec-11 @ 03:15 UTC (21 minutes ago) Instrument Flight Rules
Wind Visibility Clouds Conditions
220° at 6 knots 1 3/4 miles
  • Overcast at 200' AGL
  • Mist
Temperatures Readings
Current -7°C / 19°F
Dewpoint -7°C / 19°F
Humidity 100%
Altimeter 30.22" Hg
Pressure 1023 hPa
Elevation 348
METAR KRID 110315Z AUTO 22006KT 1 3/4SM BR OVC002 M07/M07 A3022 RMK AO2
Observed Flight Rules
Dec-11 @ 03:15 UTC
(21 minutes ago)
LIFR
Wind Visibility
220° at 6 knots 1 3/4 miles
Clouds
  • Overcast at 200' AGL
Conditions
  • Mist
Temperature Dewpoint
-7°C / 19°F -7°C / 19°F
Humidity Altimeter Pressure
100% 30.22" Hg 1023 hPa